< < Back
Terminal Aerodrome Forecast


Current Version              Previous Versions:   1  2  3  4  5  6  7  8  9  

Terminal Aerodrome Forecast

372
FTUS44 KMOB 011739
TAFMOB
TAF
KMOB 011739Z 0118/0218 00000KT P6SM FEW045 BKN250
     FM020900 VRB02KT P6SM SKC
     FM021500 34003KT P6SM SKC=

Latest METAR

105
SAUS80 KWBC 020600
MTRMOB
METAR KMOB 020556Z AUTO 27003KT 10SM CLR 23/22 A3007 RMK AO2 SLP179
T02330217 10283 20228 403440211 51003


USA.gov is the U.S. government's official web portal to all federal, state and local government web resources and services.